KFRH/FRH METAR and TAF weather

Enter ICAO airport designator
Station Type Date Time Source
KFRH METAR 2019/07/17 12:35 UTC NOAA

KFRH 171235Z AUTO 24006KT 1 3/4SM OVC003 23/23 A2997 RMK AO1


Station Type Date Time Source
KFRH Decoded METAR 2019/07/17 12:35 UTC NOAA

Station name not available
Jul 17, 2019 - 08:35 AM EDT / 2019.07.17 1235 UTC
Wind: from the WSW (240 degrees) at 7 MPH (6 KT):0
Visibility: 1 3/4 mile(s):0
Sky conditions: overcast
Temperature: 73 F (23 C)
Dew Point: 73 F (23 C)
Relative Humidity: 100%
Pressure (altimeter): 29.97 in. Hg (1014 hPa)
ob: KFRH 171235Z AUTO 24006KT 1 3/4SM OVC003 23/23 A2997 RMK AO1
cycle: 12

Station Type Date Time Source
KFRH TAF UTC NOAA

Error!

Example: see airport list